Time;durP1;ratioP1;P1;durP2;ratioP2;P2;SDS_P1;SDS_P2;PMS_P1;PMS_P2;Temp;Humidity;BMP_temperature;BMP_pressure;BME280_temperature;BME280_humidity;BME280_pressure;Samples;Min_cycle;Max_cycle;Signal;HPM_P1;HPM_P2
2022/06/16 00:02:05;;;;;;;6.07;4.60;;;;;;;21.89;58.35;95086.88;5068463;28;20604;-74
2022/06/16 00:04:32;;;;;;;4.47;4.07;;;;;;;21.86;58.29;95080.28;5084271;28;20200;-72
2022/06/16 00:06:59;;;;;;;8.40;4.47;;;;;;;21.85;58.51;95077.84;5086830;28;20215;-73
2022/06/16 00:09:27;;;;;;;4.73;4.23;;;;;;;21.80;58.50;95068.03;5051435;28;20194;-74
2022/06/16 00:11:54;;;;;;;6.20;4.63;;;;;;;21.81;58.61;95077.47;5069428;28;20186;-74
2022/06/16 00:14:23;;;;;;;5.20;4.22;;;;;;;21.78;58.73;95070.84;5068618;28;20187;-74
2022/06/16 00:16:51;;;;;;;10.45;5.15;;;;;;;21.76;58.89;95067.66;5069199;28;20190;-75
2022/06/16 00:19:18;;;;;;;5.18;4.43;;;;;;;21.73;58.88;95070.66;5068763;28;20194;-73
2022/06/16 00:21:45;;;;;;;6.13;4.10;;;;;;;21.72;58.90;95071.66;5069154;28;20305;-73
2022/06/16 00:24:12;;;;;;;7.40;4.00;;;;;;;21.70;59.07;95068.44;5069010;28;20204;-73
2022/06/16 00:26:38;;;;;;;7.43;4.68;;;;;;;21.68;59.15;95070.44;5068319;28;20922;-75
2022/06/16 00:29:05;;;;;;;7.73;4.63;;;;;;;21.65;59.29;95068.22;5075637;28;20189;-73
2022/06/16 00:31:32;;;;;;;6.63;4.17;;;;;;;21.65;59.31;95077.84;5088596;28;20193;-74
2022/06/16 00:34:01;;;;;;;5.68;5.18;;;;;;;21.63;59.30;95074.59;5089053;28;20196;-73
2022/06/16 00:36:28;;;;;;;4.85;4.45;;;;;;;21.62;59.42;95079.00;5088737;28;20182;-74
2022/06/16 00:38:55;;;;;;;5.47;4.30;;;;;;;21.59;59.44;95070.78;5086022;28;20194;-74
2022/06/16 00:41:21;;;;;;;5.25;4.18;;;;;;;21.57;59.73;95070.19;5071633;28;20604;-74
2022/06/16 00:43:48;;;;;;;6.57;4.57;;;;;;;21.56;59.65;95071.22;5070955;28;20201;-73
2022/06/16 00:46:19;;;;;;;7.22;4.28;;;;;;;21.54;59.82;95067.00;5070645;28;20222;-73
2022/06/16 00:48:48;;;;;;;4.60;4.20;;;;;;;21.53;60.01;95061.97;5070812;28;20195;-73
2022/06/16 00:51:22;;;;;;;5.05;4.55;;;;;;;21.52;60.04;95065.59;5070769;28;20739;-72
2022/06/16 00:53:50;;;;;;;7.63;4.50;;;;;;;21.50;60.11;95063.19;5072976;28;20570;-73
2022/06/16 00:56:19;;;;;;;5.15;4.63;;;;;;;21.48;60.14;95059.16;5089240;28;20228;-74
2022/06/16 00:58:48;;;;;;;9.38;4.45;;;;;;;21.47;60.18;95068.78;5090606;28;20659;-75
2022/06/16 01:01:19;;;;;;;4.82;4.38;;;;;;;21.45;60.38;95062.94;5090586;28;20225;-75
2022/06/16 01:06:32;;;;;;;9.17;4.53;;;;;;;21.39;60.59;95062.94;5090336;28;20181;-73
2022/06/16 01:09:03;;;;;;;7.17;4.90;;;;;;;21.39;60.68;95061.13;5083490;28;20186;-72
2022/06/16 01:14:46;;;;;;;7.10;4.70;;;;;;;21.36;60.96;95058.13;5078647;28;20825;-73
2022/06/16 01:17:19;;;;;;;6.93;4.60;;;;;;;21.35;60.95;95053.91;5090449;28;20367;-74
2022/06/16 01:20:02;;;;;;;5.15;3.75;;;;;;;21.32;61.26;95054.31;5090143;28;20635;-73
2022/06/16 01:22:44;;;;;;;5.77;4.33;;;;;;;21.30;61.09;95057.88;5090760;28;20244;-72
2022/06/16 01:25:24;;;;;;;9.00;4.80;;;;;;;21.28;61.39;95057.25;5070859;28;20230;-72
2022/06/16 01:28:22;;;;;;;4.47;4.07;;;;;;;21.26;61.38;95053.25;5070378;28;20194;-73
2022/06/16 01:31:01;;;;;;;5.73;4.47;;;;;;;21.25;61.48;95051.66;5006588;28;20192;-73
2022/06/16 01:33:38;;;;;;;4.83;4.20;;;;;;;21.25;61.45;95056.88;5007873;28;20684;-73
2022/06/16 01:36:12;;;;;;;7.03;4.63;;;;;;;21.23;61.43;95053.66;5009376;28;20199;-74
2022/06/16 01:38:46;;;;;;;9.47;4.30;;;;;;;21.21;61.79;95051.25;5009212;28;20662;-72
2022/06/16 01:41:21;;;;;;;4.63;4.27;;;;;;;21.21;61.66;95045.25;5008394;28;20409;-74
2022/06/16 01:43:57;;;;;;;7.27;4.70;;;;;;;21.18;61.72;95040.41;5008194;28;20187;-73
2022/06/16 01:46:29;;;;;;;4.77;4.07;;;;;;;21.17;61.58;95044.03;5007921;28;20291;-73
2022/06/16 01:49:02;;;;;;;6.23;4.53;;;;;;;21.16;61.85;95038.03;5007957;28;20200;-73
2022/06/16 01:51:35;;;;;;;5.85;4.20;;;;;;;21.16;61.80;95043.22;5007757;28;20192;-73
2022/06/16 01:54:08;;;;;;;7.93;4.30;;;;;;;21.12;61.73;95039.41;5021439;28;20191;-74
2022/06/16 01:56:43;;;;;;;8.90;4.50;;;;;;;21.13;61.96;95029.81;5012744;28;20832;-75
2022/06/16 01:59:15;;;;;;;4.87;3.97;;;;;;;21.11;61.82;95031.78;5017160;28;20199;-73
2022/06/16 02:01:49;;;;;;;4.85;3.70;;;;;;;21.09;62.27;95028.59;5027665;28;20418;-72
2022/06/16 02:04:21;;;;;;;4.83;4.37;;;;;;;21.08;62.37;95035.59;5027615;28;20654;-73
2022/06/16 02:06:54;;;;;;;6.63;4.30;;;;;;;21.07;62.27;95043.56;5053363;28;20280;-72
2022/06/16 02:09:27;;;;;;;7.00;4.40;;;;;;;21.04;62.25;95034.38;5087377;28;20236;-73
2022/06/16 02:11:56;;;;;;;6.27;4.30;;;;;;;21.02;62.35;95037.16;5089878;28;20272;-73
2022/06/16 02:14:27;;;;;;;4.37;3.93;;;;;;;21.00;62.29;95039.16;5086982;28;20240;-74
2022/06/16 02:16:57;;;;;;;7.53;4.50;;;;;;;20.99;62.38;95041.97;5069072;28;20226;-73
2022/06/16 02:19:26;;;;;;;4.67;4.27;;;;;;;20.97;62.43;95038.72;5069781;28;20194;-72
2022/06/16 02:21:54;;;;;;;7.17;4.70;;;;;;;20.96;62.30;95040.53;5069003;28;20210;-72
2022/06/16 02:24:23;;;;;;;6.50;4.43;;;;;;;20.95;62.40;95040.75;5070450;28;20227;-72
2022/06/16 02:26:53;;;;;;;8.03;4.73;;;;;;;20.93;62.46;95048.72;5073301;28;20189;-73
2022/06/16 02:29:26;;;;;;;8.10;4.43;;;;;;;20.90;62.56;95043.91;5073372;28;20556;-72
2022/06/16 02:32:03;;;;;;;6.00;4.10;;;;;;;20.89;62.64;95039.69;5073381;28;20201;-73
2022/06/16 02:34:39;;;;;;;8.00;4.30;;;;;;;20.88;62.76;95047.69;5073641;28;20550;-73
2022/06/16 02:37:17;;;;;;;4.40;4.00;;;;;;;20.86;62.70;95047.91;5073088;28;20251;-73
2022/06/16 02:39:58;;;;;;;5.47;4.47;;;;;;;20.85;62.73;95051.47;5073345;28;20705;-73
2022/06/16 02:42:40;;;;;;;8.23;4.00;;;;;;;20.83;62.75;95058.66;5073405;28;20217;-73
2022/06/16 02:45:18;;;;;;;4.30;4.00;;;;;;;20.83;62.92;95063.06;5073014;28;20194;-72
2022/06/16 02:47:57;;;;;;;8.17;4.73;;;;;;;20.80;62.90;95061.66;5076620;28;20196;-73
2022/06/16 02:50:36;;;;;;;6.50;4.40;;;;;;;20.77;63.13;95060.25;5093210;28;20236;-73
2022/06/16 02:53:22;;;;;;;6.00;4.50;;;;;;;20.74;63.06;95052.81;5093449;28;20192;-74
2022/06/16 02:55:54;;;;;;;5.33;4.10;;;;;;;20.73;63.09;95066.81;5093124;28;20192;-72
2022/06/16 02:58:22;;;;;;;4.13;3.83;;;;;;;20.79;62.87;95080.84;5085076;28;20194;-75
2022/06/16 03:00:53;;;;;;;5.60;4.17;;;;;;;20.77;63.32;95062.84;5073125;28;20190;-74
2022/06/16 03:03:23;;;;;;;8.27;4.17;;;;;;;20.77;63.34;95070.66;5072903;28;20187;-75
2022/06/16 03:05:52;;;;;;;5.07;4.33;;;;;;;20.79;63.38;95073.03;5072864;28;20632;-73
2022/06/16 03:08:20;;;;;;;7.53;4.50;;;;;;;20.78;63.61;95061.84;5089238;28;20190;-73
2022/06/16 03:10:52;;;;;;;7.67;4.03;;;;;;;20.79;63.60;95073.03;5092408;28;20690;-73
2022/06/16 03:13:20;;;;;;;7.43;4.53;;;;;;;20.79;63.58;95065.25;5091508;28;20189;-74
2022/06/16 03:15:47;;;;;;;5.47;4.13;;;;;;;20.82;63.65;95067.47;5093265;28;20178;-72
2022/06/16 03:18:14;;;;;;;4.73;4.30;;;;;;;20.82;63.68;95066.66;5093039;28;20222;-75
2022/06/16 03:20:43;;;;;;;6.07;4.30;;;;;;;20.83;63.74;95070.88;5092545;28;20194;-72
2022/06/16 03:23:10;;;;;;;4.37;3.97;;;;;;;20.84;63.82;95067.28;5092852;28;20286;-72
2022/06/16 03:25:38;;;;;;;4.87;4.43;;;;;;;20.85;63.93;95071.47;5091850;28;20193;-73
2022/06/16 03:28:05;;;;;;;5.37;4.27;;;;;;;20.84;63.83;95055.06;5078433;28;20188;-74
2022/06/16 03:30:33;;;;;;;7.00;4.50;;;;;;;20.87;63.81;95064.28;5092499;28;20668;-74
2022/06/16 03:33:00;;;;;;;4.83;4.40;;;;;;;20.90;63.79;95063.91;5092801;28;20182;-73
2022/06/16 03:35:27;;;;;;;6.43;4.50;;;;;;;20.90;63.78;95067.31;5091459;28;20198;-73
2022/06/16 03:37:56;;;;;;;6.17;4.17;;;;;;;20.89;63.96;95047.50;5090257;28;20190;-73
2022/06/16 03:40:23;;;;;;;4.83;4.43;;;;;;;20.99;63.72;95057.56;5091725;28;20193;-73
2022/06/16 03:42:50;;;;;;;5.27;4.63;;;;;;;21.04;63.59;95060.38;5092552;28;20209;-72
2022/06/16 03:45:18;;;;;;;5.20;4.70;;;;;;;21.03;63.64;95050.97;5091406;28;20231;-74
2022/06/16 03:47:45;;;;;;;7.50;5.07;;;;;;;21.14;63.29;95067.81;5092647;28;20220;-73
2022/06/16 03:50:15;;;;;;;5.80;4.20;;;;;;;21.19;63.17;95068.03;5091520;28;20284;-74
2022/06/16 03:52:42;;;;;;;7.73;4.50;;;;;;;21.23;62.98;95057.03;5092161;28;20190;-73
2022/06/16 03:55:11;;;;;;;6.33;4.73;;;;;;;21.32;62.84;95062.09;5092031;28;20541;-73
2022/06/16 03:57:38;;;;;;;5.37;4.83;;;;;;;21.39;62.49;95068.94;5091083;28;20198;-72
2022/06/16 04:00:06;;;;;;;7.77;4.67;;;;;;;21.48;62.27;95065.16;5092049;28;20197;-73
2022/06/16 04:02:33;;;;;;;9.67;4.60;;;;;;;21.56;61.99;95071.22;5091730;28;20232;-73
2022/06/16 04:05:01;;;;;;;9.63;4.80;;;;;;;21.62;61.70;95067.81;5083175;28;20187;-74
2022/06/16 04:07:28;;;;;;;9.73;4.90;;;;;;;21.68;61.36;95069.63;5071661;28;20190;-73
2022/06/16 04:09:56;;;;;;;5.63;4.93;;;;;;;21.77;61.23;95066.66;5071994;28;20237;-73
2022/06/16 04:12:24;;;;;;;5.35;4.63;;;;;;;21.84;61.15;95068.44;5071666;28;20190;-74
2022/06/16 04:14:51;;;;;;;6.25;5.03;;;;;;;21.92;60.79;95073.47;5071927;28;20194;-73
2022/06/16 04:17:18;;;;;;;6.47;5.20;;;;;;;22.01;60.74;95077.47;5071384;28;20225;-74
2022/06/16 04:22:25;;;;;;;4.97;4.55;;;;;;;22.14;60.41;95069.72;5085675;28;20263;-73
2022/06/16 04:24:52;;;;;;;8.32;5.25;;;;;;;22.21;60.13;95072.34;5077394;28;20179;-73
2022/06/16 04:27:19;;;;;;;6.57;4.85;;;;;;;22.27;59.86;95077.53;5071035;28;20198;-73
2022/06/16 04:29:47;;;;;;;13.48;5.43;;;;;;;22.34;59.53;95071.53;5072428;28;20190;-73
2022/06/16 04:32:14;;;;;;;5.43;4.30;;;;;;;22.42;59.48;95071.31;5087914;28;20198;-73
2022/06/16 04:34:42;;;;;;;9.45;5.10;;;;;;;22.43;59.24;95062.50;5085650;28;20186;-73
2022/06/16 04:37:10;;;;;;;9.82;5.22;;;;;;;22.52;59.19;95064.69;5070763;28;20222;-73
2022/06/16 04:39:37;;;;;;;7.47;4.80;;;;;;;22.61;58.93;95064.47;5071362;28;20255;-74
2022/06/16 04:42:05;;;;;;;9.05;5.03;;;;;;;22.62;58.66;95059.06;5076509;28;20206;-73
2022/06/16 04:44:34;;;;;;;6.85;5.00;;;;;;;22.74;58.36;95067.84;5091027;28;20207;-73
2022/06/16 04:47:03;;;;;;;6.28;5.10;;;;;;;22.82;58.09;95073.88;5071659;28;20201;-74
2022/06/16 04:49:30;;;;;;;5.75;5.10;;;;;;;22.86;58.01;95073.25;5071043;28;20573;-74
2022/06/16 04:51:57;;;;;;;5.78;5.18;;;;;;;22.94;57.54;95067.06;5070571;28;20194;-78
2022/06/16 04:54:24;;;;;;;5.20;4.70;;;;;;;23.02;57.48;95066.84;5072770;28;20186;-84
2022/06/16 04:56:51;;;;;;;11.52;4.35;;;;;;;23.13;62.22;95075.81;5070785;28;20226;-76
2022/06/16 04:59:18;;;;;;;10.40;4.70;;;;;;;23.33;66.52;95079.16;5070697;28;20618;-76
2022/06/16 05:01:45;;;;;;;5.50;4.20;;;;;;;23.57;66.33;95071.59;5070195;28;20265;-78
2022/06/16 05:04:13;;;;;;;9.32;4.32;;;;;;;23.80;65.24;95073.75;5070522;28;20194;-80
2022/06/16 05:06:40;;;;;;;6.72;4.60;;;;;;;24.01;64.98;95074.19;5070720;28;20191;-78
2022/06/16 05:09:07;;;;;;;19.13;4.50;;;;;;;24.23;64.26;95079.06;5071922;28;20175;-79
2022/06/16 05:11:34;;;;;;;6.82;5.53;;;;;;;24.48;62.23;95071.22;5070628;28;20584;-79
2022/06/16 05:14:01;;;;;;;7.15;4.88;;;;;;;24.76;61.64;95065.56;5070865;28;20186;-82
2022/06/16 05:16:28;;;;;;;9.82;4.82;;;;;;;25.14;61.66;95064.59;5071469;28;20194;-80
2022/06/16 05:18:55;;;;;;;10.93;4.57;;;;;;;25.56;61.47;95068.09;5070623;28;20268;-78
2022/06/16 05:21:24;;;;;;;9.85;4.35;;;;;;;26.07;61.01;95071.22;5071756;28;20247;-79
2022/06/16 05:23:50;;;;;;;4.88;3.95;;;;;;;26.57;59.54;95071.66;5072049;28;20226;-78
2022/06/16 05:26:18;;;;;;;6.97;3.85;;;;;;;26.98;58.68;95054.97;5070739;28;20201;-77
2022/06/16 05:28:45;;;;;;;5.78;3.88;;;;;;;27.67;57.46;95065.53;5070402;28;20194;-80
2022/06/16 05:31:12;;;;;;;5.00;4.50;;;;;;;28.31;56.24;95077.69;5070437;28;20220;-79
2022/06/16 05:33:38;;;;;;;5.30;4.03;;;;;;;28.90;54.14;95078.06;5070745;28;20806;-80
2022/06/16 05:36:08;;;;;;;7.30;4.30;;;;;;;29.44;52.86;95080.88;5070543;28;20191;-80
2022/06/16 05:38:36;;;;;;;6.15;4.30;;;;;;;30.02;51.58;95091.81;5070693;28;20261;-78
2022/06/16 05:41:07;;;;;;;7.78;4.38;;;;;;;30.60;50.12;95092.81;5070061;28;20194;-77
2022/06/16 05:43:35;;;;;;;4.65;4.13;;;;;;;31.20;49.06;95091.63;5069913;28;20222;-79
2022/06/16 05:46:02;;;;;;;7.28;3.83;;;;;;;31.81;47.85;95094.50;5070029;28;20183;-77
2022/06/16 05:48:29;;;;;;;10.55;4.13;;;;;;;32.35;46.75;95088.00;5069711;28;20186;-77
2022/06/16 05:50:56;;;;;;;6.63;4.63;;;;;;;33.02;45.26;95099.38;5070010;28;20197;-80
2022/06/16 05:53:23;;;;;;;8.40;4.10;;;;;;;33.58;44.07;95097.34;5070455;28;20186;-78
2022/06/16 05:55:52;;;;;;;5.75;4.40;;;;;;;34.11;42.90;95089.63;5069735;28;20190;-77
2022/06/16 05:58:19;;;;;;;7.20;4.10;;;;;;;34.57;41.77;95096.47;5070159;28;20197;-79
2022/06/16 06:00:46;;;;;;;9.77;4.70;;;;;;;35.18;40.65;95104.66;5072761;28;20569;-79
2022/06/16 06:03:13;;;;;;;5.53;4.05;;;;;;;35.69;39.93;95095.31;5073963;28;20213;-79
2022/06/16 06:05:40;;;;;;;7.70;4.35;;;;;;;36.18;39.01;95096.75;5074283;28;20198;-78
2022/06/16 06:16:26;;;;;;;8.00;4.53;;;;;;;37.71;35.68;95098.63;5073506;28;20543;-77
2022/06/16 06:18:53;;;;;;;6.95;4.78;;;;;;;37.94;35.31;95088.81;5073693;28;20581;-78
2022/06/16 06:21:57;;;;;;;5.32;4.80;;;;;;;38.22;35.07;95090.31;5073617;28;20212;-79
2022/06/16 06:24:08;;;;;;;5.97;4.80;;;;;;;38.59;34.90;95102.50;5073547;28;20651;-79
2022/06/16 06:26:36;;;;;;;6.50;4.88;;;;;;;38.93;34.34;95106.50;5073896;28;20182;-78
2022/06/16 06:29:05;;;;;;;8.13;4.90;;;;;;;39.29;34.04;95108.25;5073679;28;20205;-80
2022/06/16 06:31:32;;;;;;;10.88;4.63;;;;;;;39.64;33.35;95101.13;5073270;28;20657;-80
2022/06/16 06:33:59;;;;;;;8.80;5.40;;;;;;;39.99;33.33;95098.50;5073583;28;20183;-81
2022/06/16 06:36:25;;;;;;;8.32;4.45;;;;;;;40.32;32.58;95099.63;5072925;28;20194;-78
2022/06/16 06:38:52;;;;;;;7.63;5.43;;;;;;;40.66;32.19;95100.69;5073596;28;20193;-79
2022/06/16 06:41:19;;;;;;;7.82;5.53;;;;;;;41.02;31.97;95108.38;5073224;28;20191;-77
2022/06/16 06:43:47;;;;;;;5.75;5.25;;;;;;;41.33;31.25;95108.06;5073120;28;20221;-78
2022/06/16 06:46:14;;;;;;;8.55;5.60;;;;;;;41.64;30.99;95111.56;5073302;28;20562;-79
2022/06/16 06:48:42;;;;;;;6.50;5.90;;;;;;;41.82;30.42;95105.00;5073316;28;20182;-78
2022/06/16 06:51:09;;;;;;;6.55;5.78;;;;;;;42.11;30.08;95106.84;5072677;28;20680;-79
2022/06/16 06:53:36;;;;;;;7.75;6.00;;;;;;;42.30;29.76;95106.38;5072990;28;20182;-79
2022/06/16 06:56:03;;;;;;;8.70;6.50;;;;;;;42.52;29.80;95099.84;5072732;28;20186;-79
2022/06/16 06:58:32;;;;;;;8.30;7.07;;;;;;;42.74;28.97;95104.09;5073237;28;20190;-79
2022/06/16 07:01:01;;;;;;;7.63;6.75;;;;;;;42.87;28.94;95091.44;5072733;28;20692;-80
2022/06/16 07:03:29;;;;;;;8.05;6.75;;;;;;;43.12;28.83;95105.75;5073068;28;20222;-79
2022/06/16 07:05:56;;;;;;;6.97;6.28;;;;;;;43.30;28.41;95107.88;5073252;28;20193;-79
2022/06/16 07:08:23;;;;;;;8.93;7.35;;;;;;;43.42;28.07;95088.25;5073045;28;20201;-79
2022/06/16 07:10:50;;;;;;;7.22;6.55;;;;;;;43.68;28.41;95109.47;5072823;28;20555;-79
2022/06/16 07:13:17;;;;;;;7.70;7.00;;;;;;;43.75;27.66;95101.59;5072486;28;20211;-79
2022/06/16 07:15:44;;;;;;;7.88;7.00;;;;;;;43.76;27.77;95099.69;5072891;28;20221;-79
2022/06/16 07:18:13;;;;;;;7.88;6.80;;;;;;;43.72;27.44;95106.88;5072215;28;20240;-78
2022/06/16 07:20:39;;;;;;;8.23;7.43;;;;;;;43.70;27.71;95103.72;5072794;28;20190;-80
2022/06/16 07:23:06;;;;;;;7.80;7.03;;;;;;;43.74;27.34;95099.22;5072493;28;20228;-80
2022/06/16 07:25:33;;;;;;;8.88;7.95;;;;;;;43.81;27.76;95104.84;5072396;28;20201;-80
2022/06/16 07:28:01;;;;;;;10.93;8.38;;;;;;;43.78;27.60;95106.28;5072219;28;20193;-77
2022/06/16 07:30:28;;;;;;;8.52;7.72;;;;;;;43.64;27.37;95087.00;5072914;28;20204;-77
2022/06/16 07:32:55;;;;;;;8.25;7.28;;;;;;;43.64;27.17;95102.41;5072478;28;20203;-78
2022/06/16 07:35:24;;;;;;;8.23;7.55;;;;;;;43.46;27.47;95091.09;5072352;28;20186;-80
2022/06/16 07:37:52;;;;;;;8.80;7.90;;;;;;;43.28;27.21;95093.97;5072234;28;20198;-79
2022/06/16 07:40:20;;;;;;;9.60;7.70;;;;;;;43.20;27.69;95100.25;5072339;28;20273;-78
2022/06/16 07:42:47;;;;;;;9.02;8.23;;;;;;;43.14;27.65;95092.72;5072293;28;20221;-78
2022/06/16 07:45:15;;;;;;;9.35;8.45;;;;;;;43.20;27.72;95099.47;5072488;28;20190;-78
2022/06/16 07:47:43;;;;;;;10.40;8.48;;;;;;;43.17;27.76;95083.97;5071936;28;20190;-79
2022/06/16 07:50:12;;;;;;;9.70;8.70;;;;;;;43.23;27.84;95090.75;5072283;28;20200;-78
2022/06/16 07:52:40;;;;;;;8.80;7.88;;;;;;;43.29;27.46;95086.69;5072384;28;20190;-79
2022/06/16 07:55:08;;;;;;;9.18;8.27;;;;;;;43.36;27.14;95092.31;5072185;28;20185;-80
2022/06/16 07:57:41;;;;;;;9.38;8.43;;;;;;;43.45;27.62;95092.22;5072191;28;20240;-78
2022/06/16 08:00:09;;;;;;;10.95;8.80;;;;;;;43.53;27.71;95099.41;5071865;28;20622;-78
2022/06/16 08:02:35;;;;;;;9.43;8.57;;;;;;;43.60;27.59;95091.50;5071986;28;20197;-80
2022/06/16 08:05:02;;;;;;;9.82;8.70;;;;;;;43.62;27.46;95094.66;5071556;28;20679;-79
2022/06/16 08:07:29;;;;;;;9.90;8.90;;;;;;;43.58;26.99;95093.78;5071788;28;20280;-79
2022/06/16 08:09:57;;;;;;;10.38;8.70;;;;;;;43.49;27.41;95088.50;5071599;28;20201;-79
2022/06/16 08:12:24;;;;;;;10.35;9.02;;;;;;;43.37;26.59;95090.38;5071870;28;20197;-78
2022/06/16 08:14:51;;;;;;;10.43;9.38;;;;;;;43.29;27.15;95090.16;5071373;28;20715;-80
2022/06/16 08:17:21;;;;;;;9.48;8.68;;;;;;;43.23;27.28;95094.22;5071658;28;20332;-79
2022/06/16 08:19:48;;;;;;;11.40;9.93;;;;;;;43.08;27.11;95097.56;5071581;28;20201;-81
2022/06/16 08:22:15;;;;;;;10.10;9.05;;;;;;;42.88;26.99;95095.69;5070985;28;20653;-81
2022/06/16 08:24:42;;;;;;;10.73;8.90;;;;;;;42.59;27.54;95105.50;5071274;28;20210;-81
2022/06/16 08:27:11;;;;;;;11.95;10.85;;;;;;;42.18;27.68;95082.09;5071509;28;20194;-79
2022/06/16 08:29:41;;;;;;;11.13;10.02;;;;;;;42.05;27.15;95094.69;5071505;28;20186;-78
2022/06/16 08:32:09;;;;;;;11.30;10.20;;;;;;;41.87;27.62;95096.75;5071214;28;20652;-80
2022/06/16 08:34:36;;;;;;;10.23;9.18;;;;;;;41.70;27.17;95096.81;5071362;28;20186;-78
2022/06/16 08:37:04;;;;;;;12.02;10.10;;;;;;;41.46;28.25;95094.78;5070862;28;20660;-79
2022/06/16 08:39:30;;;;;;;10.45;9.40;;;;;;;41.22;28.00;95092.66;5071455;28;20635;-77
2022/06/16 08:42:07;;;;;;;11.75;9.43;;;;;;;40.93;28.15;95094.13;5070873;28;20193;-79
2022/06/16 08:44:42;;;;;;;11.70;10.45;;;;;;;40.65;28.47;95088.41;5070899;28;20221;-77
2022/06/16 08:47:19;;;;;;;12.57;11.30;;;;;;;40.35;29.00;95090.94;5071381;28;20190;-79
2022/06/16 08:49:55;;;;;;;11.75;10.57;;;;;;;40.06;28.94;95085.41;5070846;28;20711;-78
2022/06/16 08:52:31;;;;;;;12.90;10.98;;;;;;;39.77;29.30;95097.53;5071055;28;20197;-79
2022/06/16 08:55:07;;;;;;;11.48;10.30;;;;;;;39.44;29.19;95083.75;5070686;28;20190;-80
2022/06/16 08:57:46;;;;;;;11.55;10.23;;;;;;;39.20;29.40;95088.66;5070968;28;20187;-80
2022/06/16 09:00:19;;;;;;;12.65;10.45;;;;;;;38.92;29.69;95088.88;5070710;28;20186;-78
2022/06/16 09:02:52;;;;;;;10.82;9.80;;;;;;;38.66;29.81;95088.72;5070285;28;20915;-77
2022/06/16 09:05:32;;;;;;;11.73;10.57;;;;;;;38.38;30.18;95085.41;5071553;28;20572;-77
2022/06/16 09:08:05;;;;;;;11.15;9.25;;;;;;;38.12;30.18;95085.97;5070504;28;20653;-80
2022/06/16 09:10:39;;;;;;;11.45;10.20;;;;;;;37.90;30.46;95080.59;5070658;28;20644;-79
2022/06/16 09:13:36;;;;;;;11.80;10.57;;;;;;;37.67;30.61;95079.75;5070381;28;20201;-77
2022/06/16 09:16:13;;;;;;;12.85;10.10;;;;;;;37.44;30.92;95072.75;5070880;28;20197;-78
2022/06/16 09:19:07;;;;;;;10.68;9.68;;;;;;;37.17;30.63;95052.97;5070137;28;20229;-78
2022/06/16 09:21:46;;;;;;;10.88;9.82;;;;;;;37.20;30.80;95072.94;5070303;28;20194;-77
2022/06/16 09:24:28;;;;;;;10.75;9.80;;;;;;;37.11;31.15;95073.66;5070218;28;20692;-80
2022/06/16 09:27:00;;;;;;;12.02;9.63;;;;;;;37.06;30.70;95068.41;5070712;28;20561;-79
2022/06/16 09:29:32;;;;;;;11.15;9.30;;;;;;;37.02;31.20;95062.09;5070572;28;20186;-79
2022/06/16 09:32:10;;;;;;;12.02;10.77;;;;;;;37.00;31.38;95050.13;5070181;28;20198;-79
2022/06/16 09:34:43;;;;;;;11.02;9.93;;;;;;;36.98;31.37;95058.44;5069698;28;20198;-78
2022/06/16 09:37:16;;;;;;;12.13;9.77;;;;;;;36.82;31.48;95036.56;5069836;28;20569;-79
2022/06/16 09:39:50;;;;;;;11.15;10.05;;;;;;;36.85;31.36;95053.84;5070355;28;20185;-79
2022/06/16 09:42:35;;;;;;;12.05;9.75;;;;;;;36.75;31.33;95049.50;5069980;28;20190;-78
2022/06/16 09:45:11;;;;;;;10.88;9.77;;;;;;;36.56;31.44;95036.22;5070211;28;20271;-79
2022/06/16 09:47:45;;;;;;;10.80;9.70;;;;;;;36.51;31.54;95043.53;5070443;28;20186;-79
2022/06/16 09:50:19;;;;;;;10.75;9.48;;;;;;;36.36;31.33;95039.22;5070020;28;20201;-77
2022/06/16 09:52:53;;;;;;;10.60;8.95;;;;;;;36.34;31.65;95044.84;5070157;28;20197;-78
2022/06/16 09:55:25;;;;;;;10.43;9.32;;;;;;;36.25;31.50;95027.94;5069940;28;20208;-79
2022/06/16 09:57:58;;;;;;;10.05;9.05;;;;;;;36.25;31.55;95040.47;5069871;28;20208;-79
2022/06/16 10:00:27;;;;;;;11.48;10.27;;;;;;;36.09;31.15;95034.59;5069758;28;20197;-79
2022/06/16 10:03:00;;;;;;;10.20;9.05;;;;;;;35.96;31.66;95027.31;5070122;28;20308;-78
2022/06/16 10:05:37;;;;;;;12.20;9.70;;;;;;;35.91;31.68;95038.84;5069694;28;20190;-79
2022/06/16 10:08:11;;;;;;;10.07;8.80;;;;;;;35.83;31.62;95034.16;5069878;28;20178;-80
2022/06/16 10:10:46;;;;;;;10.15;9.15;;;;;;;35.52;31.82;94991.22;5069531;28;20189;-78
2022/06/16 10:13:20;;;;;;;11.05;9.95;;;;;;;35.71;31.88;95023.97;5069897;28;20186;-80
2022/06/16 10:15:52;;;;;;;9.90;8.90;;;;;;;35.64;32.05;95018.22;5070097;28;20189;-78
2022/06/16 10:18:22;;;;;;;11.10;9.30;;;;;;;35.64;31.74;95031.50;5069998;28;20226;-78
2022/06/16 10:20:49;;;;;;;10.80;9.70;;;;;;;35.60;31.67;95017.19;5069607;28;20190;-79
2022/06/16 10:23:21;;;;;;;11.40;10.15;;;;;;;35.54;32.01;95016.47;5069769;28;20182;-80
2022/06/16 10:25:54;;;;;;;10.90;9.45;;;;;;;35.51;32.04;95016.25;5069644;28;20178;-79
2022/06/16 10:28:28;;;;;;;10.30;9.27;;;;;;;35.33;32.12;94999.97;5070169;28;20190;-78
2022/06/16 10:30:57;;;;;;;11.45;8.68;;;;;;;35.41;32.14;95017.16;5069788;28;20213;-80
2022/06/16 10:33:27;;;;;;;10.43;9.38;;;;;;;35.30;31.55;95013.03;5069554;28;20637;-79
2022/06/16 10:35:59;;;;;;;10.27;9.02;;;;;;;35.33;31.97;95017.81;5069511;28;20224;-78
2022/06/16 10:38:32;;;;;;;10.23;9.32;;;;;;;35.30;31.80;95013.03;5069784;28;20194;-78
2022/06/16 10:41:02;;;;;;;9.95;8.95;;;;;;;35.19;31.79;94997.22;5069642;28;20190;-80
2022/06/16 10:43:32;;;;;;;9.82;8.93;;;;;;;35.25;32.00;95005.94;5069473;28;20190;-80
2022/06/16 10:46:07;;;;;;;10.32;9.32;;;;;;;35.09;31.77;94981.38;5071384;28;20186;-79
2022/06/16 10:48:38;;;;;;;10.43;9.45;;;;;;;35.18;32.00;95000.94;5073107;28;20336;-79
2022/06/16 10:51:16;;;;;;;9.90;8.98;;;;;;;35.11;31.77;94987.22;5073618;28;20194;-80
2022/06/16 10:53:45;;;;;;;10.15;9.15;;;;;;;35.12;31.82;95002.09;5072974;28;20197;-77
2022/06/16 10:56:22;;;;;;;10.15;9.10;;;;;;;35.08;32.00;94995.75;5073337;28;20190;-78
2022/06/16 10:58:52;;;;;;;11.05;9.23;;;;;;;35.07;32.07;94990.75;5072890;28;20194;-78
2022/06/16 11:01:23;;;;;;;11.23;9.75;;;;;;;34.97;31.65;94980.19;5073049;28;20186;-79
2022/06/16 11:03:53;;;;;;;10.73;9.63;;;;;;;34.98;32.09;94990.59;5073013;28;20234;-79
2022/06/16 11:06:22;;;;;;;10.15;9.18;;;;;;;34.90;31.82;94993.84;5072972;28;20191;-79
2022/06/16 11:08:52;;;;;;;10.05;8.77;;;;;;;34.85;32.13;94985.94;5072847;28;20190;-78
2022/06/16 11:11:40;;;;;;;10.27;9.27;;;;;;;34.87;31.96;94992.53;5072888;28;20182;-79
2022/06/16 11:14:12;;;;;;;10.95;9.40;;;;;;;34.84;32.11;95000.25;5073038;28;20216;-80
2022/06/16 11:16:46;;;;;;;10.63;9.45;;;;;;;34.78;32.10;94994.22;5072612;28;20202;-79
2022/06/16 11:19:26;;;;;;;10.68;9.60;;;;;;;34.74;32.07;94985.22;5072786;28;20189;-81
2022/06/16 11:21:54;;;;;;;11.27;10.18;;;;;;;34.70;32.10;94986.88;5072692;28;20190;-78
2022/06/16 11:24:28;;;;;;;10.85;9.75;;;;;;;34.62;31.89;94985.63;5072387;28;20214;-77
2022/06/16 11:27:05;;;;;;;10.95;9.85;;;;;;;34.57;31.75;94979.56;5072850;28;20186;-79
2022/06/16 11:29:34;;;;;;;10.07;8.75;;;;;;;34.56;32.17;94981.44;5072723;28;20194;-81
2022/06/16 11:32:10;;;;;;;11.00;9.90;;;;;;;34.58;32.14;94978.50;5072475;28;20186;-81
2022/06/16 11:34:41;;;;;;;11.10;10.00;;;;;;;34.58;32.29;94976.63;5072361;28;20240;-79
2022/06/16 11:37:40;;;;;;;10.30;9.30;;;;;;;34.49;32.45;94967.69;5072215;28;20194;-79
2022/06/16 11:40:25;;;;;;;11.45;9.68;;;;;;;34.50;32.55;94957.84;5072641;28;20581;-79
2022/06/16 11:43:07;;;;;;;10.05;9.05;;;;;;;34.54;32.45;94975.59;5072432;28;20199;-79
2022/06/16 11:45:37;;;;;;;11.90;9.18;;;;;;;34.50;32.37;94974.63;5071954;28;20210;-79
2022/06/16 11:48:17;;;;;;;11.00;8.80;;;;;;;34.44;32.28;94976.47;5072304;28;20566;-79
2022/06/16 11:50:52;;;;;;;10.55;9.55;;;;;;;34.39;32.67;94973.88;5072105;28;20190;-78
2022/06/16 11:53:34;;;;;;;9.50;8.65;;;;;;;34.35;32.44;94966.75;5072484;28;20191;-79
2022/06/16 11:56:07;;;;;;;9.95;8.95;;;;;;;34.20;32.52;94949.91;5071906;28;20182;-80
2022/06/16 11:58:52;;;;;;;10.77;9.68;;;;;;;34.27;32.72;94968.16;5071422;28;20625;-80
2022/06/16 12:01:25;;;;;;;10.20;8.85;;;;;;;34.25;32.46;94964.22;5072478;28;20281;-80
2022/06/16 12:04:28;;;;;;;12.10;9.68;;;;;;;34.19;32.54;94963.44;5071546;28;20200;-80